Aviation Digital Data Service (ADDS)

Output produced by METARs form (0637 UTC 27 March 2017)
found at http://www.aviationweather.gov/adds/metars/
 
MUSC 270500Z 2706/2806 07005KT 9000 SCT020 
     BECMG 2716/2718 07016KT 
     BECMG 2802/2804 07005KT
       
MUCU 270500Z 2706/2806 02005KT 9000 SCT020 
     BECMG 2718/2720 07014KT 
     BECMG 2801/2803 01005KT
       
MUHG 270500Z 2706/2806 06005KT 9000 SCT020 
     BECMG 2716/2718 07014KT 
     BECMG 2802/2804 06005KT
       
TAF MUGM 2623/2723 35008KT 9999 FEW035 FEW080 QNH2980INS 
     BECMG 2717/2719 15010KT 9999 FEW035 BKN100 QNH2982INS T22/2709Z T28/2721Z FN00151
       
MUCM 270500Z 2706/2806 06005KT 9000 SCT020 
     BECMG 2716/2718 08015KT 
     BECMG 2802/2804 06005KT
       
MUCC 270500Z 2706/2806 07016KT 9000 SCT020
       
MUHA 270500Z 2706/2806 VRB03KT 9000 FEW025 
     BECMG 2712/2714 08005KT 
     BECMG 2717/2719 07010KT 9000 SCT025 
     BECMG 2803/2805 VRB03KT
       
MUVR 270500Z 2706/2806 10005KT 9000 SCT020 
     BECMG 2717/2719 08016KT 
     BECMG 2802/2804 11005KT